Terminal Aerodrome Forecast
Issued by NWS

Home | Current Version | Previous Version | Text Only | Print | Product List | Glossary On
Versions: 1 2 3 4 5 6 7 8 9 10 11 12 13 14
000
FTUS45 KABQ 180500
TAFAEG
TAF
KAEG 180524Z 1806/1906 14008KT P6SM FEW250
     FM181000 12005KT P6SM SCT250
     FM181800 17013KT P6SM BKN250
     FM182100 18014G22KT P6SM SCT150 BKN200
     FM190100 23011KT P6SM BKN150=

USA.gov is the U.S. government's official web portal to all federal, state and local government web resources and services.